Time;durP1;ratioP1;P1;durP2;ratioP2;P2;SDS_P1;SDS_P2;PMS_P1;PMS_P2;Temp;Humidity;BMP_temperature;BMP_pressure;BME280_temperature;BME280_humidity;BME280_pressure;Samples;Min_cycle;Max_cycle;Signal;HPM_P1;HPM_P2
2021/10/03 00:00:00;;;;;;;20.98;3.60;;;;;;;;;;4981285;28;20397;-71
2021/10/03 00:02:30;;;;;;;17.30;4.30;;;;;;;;;;4984644;28;20026;-69
2021/10/03 00:05:01;;;;;;;19.92;3.88;;;;;;;;;;4985889;28;20018;-70
2021/10/03 00:07:27;;;;;;;25.90;5.90;;;;;;;;;;5000049;28;20449;-72
2021/10/03 00:09:54;;;;;;;17.60;3.80;;;;;;;;;;4989081;28;20046;-71
2021/10/03 00:12:21;;;;;;;22.98;4.65;;;;;;;;;;4992060;28;20079;-71
2021/10/03 00:14:47;;;;;;;21.25;3.38;;;;;;;;;;4978002;28;20050;-70
2021/10/03 00:17:14;;;;;;;20.95;3.92;;;;;;;;;;4980185;28;20559;-70
2021/10/03 00:19:40;;;;;;;24.40;4.03;;;;;;;;;;4983660;28;20117;-70
2021/10/03 00:22:06;;;;;;;21.83;5.05;;;;;;;;;;4985758;28;20030;-70
2021/10/03 00:24:32;;;;;;;14.82;3.58;;;;;;;;;;4987597;28;20035;-70
2021/10/03 00:26:59;;;;;;;20.95;4.15;;;;;;;;;;4983389;28;20031;-70
2021/10/03 00:29:26;;;;;;;22.80;4.15;;;;;;;;;;4991453;28;20062;-71
2021/10/03 00:31:52;;;;;;;18.88;3.55;;;;;;;;;;4984490;28;20097;-70
2021/10/03 00:34:18;;;;;;;23.95;4.20;;;;;;;;;;4986010;28;20396;-71
2021/10/03 00:36:44;;;;;;;29.08;5.10;;;;;;;;;;4980560;28;20507;-71
2021/10/03 00:39:10;;;;;;;18.92;3.92;;;;;;;;;;4989467;28;23018;-71
2021/10/03 00:41:36;;;;;;;29.38;5.15;;;;;;;;;;4984586;28;20109;-72
2021/10/03 00:44:03;;;;;;;25.17;5.55;;;;;;;;;;4998881;28;20035;-73
2021/10/03 00:46:29;;;;;;;32.35;5.25;;;;;;;;;;4985004;28;20023;-73
2021/10/03 00:48:55;;;;;;;24.55;5.75;;;;;;;;;;4988613;28;20031;-72
2021/10/03 00:51:21;;;;;;;33.90;5.82;;;;;;;;;;4997295;28;20025;-73
2021/10/03 00:53:47;;;;;;;31.52;4.82;;;;;;;;;;5011561;28;20033;-73
2021/10/03 00:56:15;;;;;;;22.55;4.63;;;;;;;;;;4987887;28;20050;-73
2021/10/03 00:58:42;;;;;;;25.85;5.15;;;;;;;;;;4978180;28;20122;-73
2021/10/03 01:01:08;;;;;;;29.55;4.90;;;;;;;;;;4990298;28;20093;-72
2021/10/03 01:03:35;;;;;;;25.73;4.40;;;;;;;;;;4983999;28;20057;-73
2021/10/03 01:06:02;;;;;;;23.10;5.30;;;;;;;;;;4988397;28;20030;-73
2021/10/03 01:08:28;;;;;;;27.95;5.45;;;;;;;;;;4987855;28;20670;-73
2021/10/03 01:10:54;;;;;;;18.52;3.92;;;;;;;;;;4988933;28;20045;-73
2021/10/03 01:13:23;;;;;;;20.38;3.75;;;;;;;;;;4994855;28;20019;-73
2021/10/03 01:15:49;;;;;;;24.38;3.97;;;;;;;;;;4996721;28;20129;-73
2021/10/03 01:18:16;;;;;;;19.45;3.70;;;;;;;;;;4998755;28;20042;-73
2021/10/03 01:20:42;;;;;;;20.10;4.05;;;;;;;;;;4989862;28;20092;-73
2021/10/03 01:23:08;;;;;;;18.15;5.00;;;;;;;;;;4991110;28;20449;-73
2021/10/03 01:25:35;;;;;;;28.23;4.82;;;;;;;;;;4992319;28;20026;-73
2021/10/03 01:28:02;;;;;;;19.50;3.60;;;;;;;;;;4990953;28;20022;-72
2021/10/03 01:30:29;;;;;;;16.52;3.30;;;;;;;;;;4998259;28;20097;-73
2021/10/03 01:32:55;;;;;;;25.13;4.85;;;;;;;;;;4999088;28;20113;-73
2021/10/03 01:35:21;;;;;;;13.18;3.45;;;;;;;;;;4990591;28;20026;-72
2021/10/03 01:37:49;;;;;;;13.27;3.33;;;;;;;;;;4989229;28;20030;-74
2021/10/03 01:40:16;;;;;;;18.90;4.05;;;;;;;;;;4998358;28;20117;-73
2021/10/03 01:42:42;;;;;;;15.27;2.90;;;;;;;;;;5000075;28;20463;-74
2021/10/03 01:45:09;;;;;;;16.45;3.53;;;;;;;;;;4990186;28;20684;-73
2021/10/03 01:47:55;;;;;;;16.65;3.80;;;;;;;;;;4995867;28;20162;-73
2021/10/03 01:50:21;;;;;;;19.10;3.58;;;;;;;;;;4988682;28;20022;-74
2021/10/03 01:52:47;;;;;;;16.95;3.22;;;;;;;;;;4995166;28;20022;-73
2021/10/03 01:55:16;;;;;;;15.93;3.67;;;;;;;;;;4990225;28;20394;-72
2021/10/03 01:57:42;;;;;;;17.05;3.47;;;;;;;;;;4992502;28;20121;-73
2021/10/03 02:00:09;;;;;;;22.85;3.97;;;;;;;;;;4978857;28;20035;-73
2021/10/03 02:02:35;;;;;;;14.98;2.75;;;;;;;;;;4987273;28;20026;-73
2021/10/03 02:05:01;;;;;;;15.48;2.63;;;;;;;;;;4990325;28;20094;-73
2021/10/03 02:07:28;;;;;;;13.27;3.72;;;;;;;;;;4984802;28;20022;-73
2021/10/03 02:09:55;;;;;;;19.60;4.07;;;;;;;;;;4989978;28;20033;-72
2021/10/03 02:12:21;;;;;;;24.20;5.40;;;;;;;;;;5002032;28;20026;-74
2021/10/03 02:14:47;;;;;;;15.55;3.65;;;;;;;;;;4980369;28;20034;-73
2021/10/03 02:17:14;;;;;;;16.17;4.13;;;;;;;;;;4991146;28;20027;-73
2021/10/03 02:19:41;;;;;;;25.17;5.25;;;;;;;;;;4987138;28;20543;-73
2021/10/03 02:22:10;;;;;;;23.23;3.70;;;;;;;;;;4992537;28;20027;-74
2021/10/03 02:24:36;;;;;;;11.38;3.67;;;;;;;;;;4984132;28;20049;-73
2021/10/03 02:27:03;;;;;;;16.17;3.08;;;;;;;;;;4986944;28;20538;-74
2021/10/03 02:29:29;;;;;;;18.73;3.42;;;;;;;;;;5008690;28;20412;-73
2021/10/03 02:31:55;;;;;;;17.63;3.05;;;;;;;;;;4991463;28;20089;-73
2021/10/03 02:34:22;;;;;;;20.40;2.90;;;;;;;;;;4983115;28;20034;-73
2021/10/03 02:36:49;;;;;;;15.38;3.47;;;;;;;;;;4989951;28;20492;-75
2021/10/03 02:39:15;;;;;;;17.35;4.72;;;;;;;;;;4986301;28;20053;-74
2021/10/03 02:41:41;;;;;;;16.02;3.00;;;;;;;;;;4983126;28;20035;-72
2021/10/03 02:44:08;;;;;;;16.10;2.13;;;;;;;;;;4988421;28;20019;-73
2021/10/03 02:46:35;;;;;;;17.30;3.38;;;;;;;;;;4988978;28;20447;-73
2021/10/03 02:49:02;;;;;;;10.57;2.20;;;;;;;;;;4989342;28;20050;-74
2021/10/03 02:51:29;;;;;;;16.60;3.03;;;;;;;;;;4990395;28;20019;-73
2021/10/03 02:53:57;;;;;;;9.38;2.03;;;;;;;;;;4990175;28;20042;-73
2021/10/03 02:56:27;;;;;;;11.82;2.08;;;;;;;;;;4988188;28;20026;-72
2021/10/03 02:58:53;;;;;;;10.65;1.98;;;;;;;;;;4980015;28;20027;-72
2021/10/03 03:01:19;;;;;;;11.13;1.75;;;;;;;;;;5003728;28;20026;-72
2021/10/03 03:03:45;;;;;;;8.40;1.80;;;;;;;;;;4989342;28;20062;-73
2021/10/03 03:06:12;;;;;;;12.20;1.80;;;;;;;;;;4989369;28;20460;-72
2021/10/03 03:08:38;;;;;;;10.43;2.10;;;;;;;;;;4994194;28;20018;-72
2021/10/03 03:11:04;;;;;;;8.48;1.80;;;;;;;;;;4988796;28;20624;-73
2021/10/03 03:13:31;;;;;;;16.80;2.40;;;;;;;;;;4986779;28;20121;-73
2021/10/03 03:15:57;;;;;;;12.82;2.53;;;;;;;;;;4984876;28;20026;-72
2021/10/03 03:18:24;;;;;;;19.30;2.92;;;;;;;;;;4982941;28;20120;-73
2021/10/03 03:20:51;;;;;;;11.65;2.22;;;;;;;;;;4988614;28;20026;-72
2021/10/03 03:23:17;;;;;;;33.55;3.00;;;;;;;;;;4978164;28;20023;-73
2021/10/03 03:25:43;;;;;;;9.43;2.33;;;;;;;;;;4986477;28;20081;-72
2021/10/03 03:28:09;;;;;;;15.93;2.05;;;;;;;;;;4986771;28;20015;-72
2021/10/03 03:30:36;;;;;;;18.80;2.72;;;;;;;;;;4989042;28;20046;-73
2021/10/03 03:33:02;;;;;;;8.85;2.10;;;;;;;;;;4985936;28;20071;-73
2021/10/03 03:35:29;;;;;;;20.38;4.30;;;;;;;;;;4983459;28;20029;-73
2021/10/03 03:37:55;;;;;;;10.25;2.38;;;;;;;;;;4989501;28;20401;-73
2021/10/03 03:40:21;;;;;;;18.10;4.13;;;;;;;;;;4980954;28;20083;-73
2021/10/03 03:42:48;;;;;;;12.13;2.20;;;;;;;;;;4988968;28;20054;-73
2021/10/03 03:45:14;;;;;;;8.50;2.35;;;;;;;;;;4990391;28;20392;-73
2021/10/03 03:47:41;;;;;;;17.50;2.55;;;;;;;;;;4987493;28;20051;-72
2021/10/03 03:50:08;;;;;;;13.80;2.60;;;;;;;;;;4991620;28;20034;-72
2021/10/03 03:52:34;;;;;;;13.80;3.20;;;;;;;;;;4990391;28;20615;-73
2021/10/03 03:55:00;;;;;;;14.35;2.47;;;;;;;;;;4997669;28;20517;-72
2021/10/03 03:57:27;;;;;;;30.58;3.05;;;;;;;;;;4987829;28;20031;-72
2021/10/03 03:59:53;;;;;;;19.10;3.08;;;;;;;;;;5014753;28;20048;-73
2021/10/03 04:02:19;;;;;;;14.25;2.78;;;;;;;;;;4982952;28;20026;-72
2021/10/03 04:04:46;;;;;;;13.77;2.40;;;;;;;;;;4989330;28;20058;-73
2021/10/03 04:07:12;;;;;;;12.35;2.50;;;;;;;;;;4989097;28;20397;-72
2021/10/03 04:09:38;;;;;;;14.63;2.63;;;;;;;;;;4992012;28;20372;-73
2021/10/03 04:12:04;;;;;;;10.50;2.53;;;;;;;;;;4987021;28;20022;-74
2021/10/03 04:14:30;;;;;;;9.77;2.40;;;;;;;;;;4989856;28;20053;-74
2021/10/03 04:16:56;;;;;;;12.57;2.42;;;;;;;;;;4985733;28;20026;-73
2021/10/03 04:19:22;;;;;;;15.05;2.95;;;;;;;;;;4992036;28;20027;-74
2021/10/03 04:21:48;;;;;;;8.50;2.30;;;;;;;;;;4985371;28;20030;-74
2021/10/03 04:24:14;;;;;;;9.48;2.22;;;;;;;;;;4994046;28;20018;-74
2021/10/03 04:26:40;;;;;;;11.95;2.70;;;;;;;;;;4993972;28;20046;-74
2021/10/03 04:29:06;;;;;;;10.00;2.63;;;;;;;;;;4993253;28;20121;-74
2021/10/03 04:31:32;;;;;;;12.30;3.08;;;;;;;;;;5015083;28;20046;-74
2021/10/03 04:34:00;;;;;;;11.00;3.03;;;;;;;;;;4991815;28;20033;-73
2021/10/03 04:36:27;;;;;;;14.05;2.65;;;;;;;;;;4992631;28;20385;-73
2021/10/03 04:38:53;;;;;;;17.95;3.10;;;;;;;;;;4996650;28;20497;-73
2021/10/03 04:41:19;;;;;;;17.45;3.15;;;;;;;;;;4989174;28;20053;-73
2021/10/03 04:43:45;;;;;;;10.07;3.00;;;;;;;;;;4989974;28;20097;-73
2021/10/03 04:46:12;;;;;;;9.68;2.83;;;;;;;;;;4993603;28;20030;-73
2021/10/03 04:48:38;;;;;;;15.07;4.05;;;;;;;;;;4991999;28;20029;-74
2021/10/03 04:51:04;;;;;;;14.10;4.82;;;;;;;;;;4985113;28;20027;-73
2021/10/03 04:53:30;;;;;;;16.10;4.80;;;;;;;;;;4985512;28;20543;-73
2021/10/03 04:55:57;;;;;;;18.27;4.35;;;;;;;;;;4991954;28;20041;-72
2021/10/03 04:58:23;;;;;;;14.02;4.18;;;;;;;;;;4990208;28;20591;-72
2021/10/03 05:00:51;;;;;;;12.15;4.15;;;;;;;;;;4990314;28;20031;-73
2021/10/03 05:03:17;;;;;;;14.20;4.55;;;;;;;;;;4987244;28;20030;-73
2021/10/03 05:05:43;;;;;;;10.27;4.00;;;;;;;;;;4992126;28;20022;-73
2021/10/03 05:08:12;;;;;;;14.38;4.85;;;;;;;;;;4990840;28;20023;-73
2021/10/03 05:10:38;;;;;;;16.35;4.40;;;;;;;;;;4979427;28;20094;-72
2021/10/03 05:13:04;;;;;;;15.57;4.60;;;;;;;;;;4990594;28;20613;-73
2021/10/03 05:15:30;;;;;;;10.95;4.35;;;;;;;;;;4992614;28;20050;-74
2021/10/03 05:17:56;;;;;;;14.07;5.32;;;;;;;;;;4991384;28;20105;-73
2021/10/03 05:20:22;;;;;;;16.13;6.72;;;;;;;;;;4990170;28;20037;-74
2021/10/03 05:22:48;;;;;;;16.27;6.07;;;;;;;;;;4992644;28;20520;-72
2021/10/03 05:25:14;;;;;;;12.63;4.43;;;;;;;;;;4990191;28;20059;-73
2021/10/03 05:27:40;;;;;;;13.10;4.78;;;;;;;;;;4991671;28;20045;-73
2021/10/03 05:30:08;;;;;;;15.52;5.72;;;;;;;;;;4986305;28;20042;-73
2021/10/03 05:32:34;;;;;;;16.70;5.28;;;;;;;;;;4990671;28;20042;-73
2021/10/03 05:35:00;;;;;;;10.85;4.53;;;;;;;;;;4994334;28;20081;-73
2021/10/03 05:37:26;;;;;;;14.25;4.85;;;;;;;;;;4991192;28;20026;-73
2021/10/03 05:39:52;;;;;;;19.83;5.93;;;;;;;;;;4991307;28;20030;-73
2021/10/03 05:42:18;;;;;;;17.98;5.40;;;;;;;;;;4991355;28;20034;-72
2021/10/03 05:44:44;;;;;;;12.07;5.00;;;;;;;;;;4985527;28;20037;-72
2021/10/03 05:47:10;;;;;;;19.25;5.85;;;;;;;;;;4990548;28;20026;-72
2021/10/03 05:49:36;;;;;;;14.00;5.90;;;;;;;;;;4985181;28;20038;-72
2021/10/03 05:52:02;;;;;;;16.40;5.60;;;;;;;;;;4992042;28;20041;-72
2021/10/03 05:54:28;;;;;;;16.17;6.22;;;;;;;;;;4989515;28;20038;-72
2021/10/03 05:56:54;;;;;;;19.80;7.00;;;;;;;;;;4990207;28;20080;-72
2021/10/03 05:59:20;;;;;;;20.25;6.43;;;;;;;;;;4989342;28;20069;-73
2021/10/03 06:01:46;;;;;;;13.68;5.93;;;;;;;;;;4991521;28;20033;-72
2021/10/03 06:04:12;;;;;;;16.58;6.30;;;;;;;;;;4986433;28;20077;-72
2021/10/03 06:06:38;;;;;;;19.85;7.90;;;;;;;;;;4990508;28;20031;-71
2021/10/03 06:09:04;;;;;;;14.65;4.50;;;;;;;;;;4990887;28;20045;-70
2021/10/03 06:11:31;;;;;;;13.52;4.43;;;;;;;;;;4998362;28;20054;-71
2021/10/03 06:13:57;;;;;;;13.60;3.25;;;;;;;;;;4993873;28;20030;-71
2021/10/03 06:16:23;;;;;;;11.07;2.78;;;;;;;;;;4986251;28;20408;-71
2021/10/03 06:18:49;;;;;;;9.82;3.55;;;;;;;;;;4983786;28;20061;-71
2021/10/03 06:21:16;;;;;;;10.90;2.42;;;;;;;;;;4986631;28;20055;-72
2021/10/03 06:23:43;;;;;;;7.03;2.28;;;;;;;;;;4987153;28;20382;-71
2021/10/03 06:26:09;;;;;;;12.35;2.22;;;;;;;;;;4989353;28;20022;-72
2021/10/03 06:28:35;;;;;;;9.98;2.10;;;;;;;;;;4988550;28;20048;-71
2021/10/03 06:31:02;;;;;;;10.45;2.25;;;;;;;;;;4982855;28;20517;-71
2021/10/03 06:33:28;;;;;;;9.65;2.25;;;;;;;;;;4994583;28;20033;-71
2021/10/03 06:35:54;;;;;;;12.35;2.60;;;;;;;;;;4993800;28;20028;-71
2021/10/03 06:38:20;;;;;;;8.68;1.92;;;;;;;;;;4997432;28;20064;-71
2021/10/03 06:40:46;;;;;;;9.40;2.45;;;;;;;;;;4983559;28;20133;-71
2021/10/03 06:43:12;;;;;;;9.30;2.20;;;;;;;;;;4987936;28;20443;-72
2021/10/03 06:45:38;;;;;;;6.47;1.85;;;;;;;;;;4987994;28;20504;-72
2021/10/03 06:48:04;;;;;;;8.13;1.42;;;;;;;;;;4986665;28;20037;-71
2021/10/03 06:50:32;;;;;;;7.40;2.00;;;;;;;;;;4986346;28;20022;-71
2021/10/03 06:52:58;;;;;;;8.40;1.60;;;;;;;;;;5004457;28;20407;-71
2021/10/03 06:55:24;;;;;;;7.97;2.03;;;;;;;;;;4989975;28;20034;-71
2021/10/03 06:57:50;;;;;;;11.00;2.65;;;;;;;;;;4997774;28;20034;-71
2021/10/03 07:00:16;;;;;;;9.85;1.58;;;;;;;;;;4985603;28;20030;-71
2021/10/03 07:02:43;;;;;;;6.53;1.95;;;;;;;;;;4990488;28;20038;-72
2021/10/03 07:05:09;;;;;;;15.60;2.30;;;;;;;;;;4985044;28;20031;-71
2021/10/03 07:07:35;;;;;;;6.05;1.92;;;;;;;;;;4990694;28;20030;-71
2021/10/03 07:10:01;;;;;;;10.80;2.25;;;;;;;;;;4986400;28;20019;-71
2021/10/03 07:12:28;;;;;;;5.78;1.65;;;;;;;;;;4989904;28;20022;-72
2021/10/03 07:14:54;;;;;;;7.68;1.50;;;;;;;;;;4990474;28;20109;-70
2021/10/03 07:17:20;;;;;;;10.55;2.03;;;;;;;;;;4984572;28;20022;-71
2021/10/03 07:19:46;;;;;;;5.88;1.77;;;;;;;;;;4988122;28;20060;-71
2021/10/03 07:22:12;;;;;;;6.75;1.83;;;;;;;;;;4988267;28;20030;-71
2021/10/03 07:24:38;;;;;;;6.10;1.75;;;;;;;;;;4987882;28;20030;-71
2021/10/03 07:27:05;;;;;;;6.07;1.70;;;;;;;;;;4987356;28;20027;-71
2021/10/03 07:29:31;;;;;;;5.95;1.77;;;;;;;;;;4992648;28;20497;-71
2021/10/03 07:31:57;;;;;;;6.50;1.42;;;;;;;;;;4991039;28;20054;-71
2021/10/03 07:34:23;;;;;;;3.85;1.35;;;;;;;;;;4992814;28;20033;-70
2021/10/03 07:36:49;;;;;;;7.82;1.60;;;;;;;;;;4984020;28;20034;-71
2021/10/03 07:39:15;;;;;;;5.05;1.58;;;;;;;;;;4984428;28;20030;-71
2021/10/03 07:41:42;;;;;;;5.15;1.80;;;;;;;;;;4985070;28;20117;-70
2021/10/03 07:44:08;;;;;;;3.65;1.77;;;;;;;;;;4990496;28;20026;-71
2021/10/03 07:46:34;;;;;;;3.97;1.60;;;;;;;;;;4999045;28;20037;-70
2021/10/03 07:49:00;;;;;;;3.97;1.35;;;;;;;;;;4982661;28;20019;-71
2021/10/03 07:51:26;;;;;;;6.68;1.52;;;;;;;;;;4980600;28;20023;-71
2021/10/03 07:53:52;;;;;;;7.10;1.50;;;;;;;;;;4988742;28;20057;-71
2021/10/03 07:56:18;;;;;;;5.78;1.80;;;;;;;;;;4993452;28;20079;-71
2021/10/03 07:58:44;;;;;;;4.07;1.38;;;;;;;;;;4990076;28;20042;-71
2021/10/03 08:01:10;;;;;;;3.33;1.20;;;;;;;;;;4989430;28;22134;-71
2021/10/03 08:03:37;;;;;;;3.25;1.20;;;;;;;;;;5001968;28;20509;-71
2021/10/03 08:06:03;;;;;;;7.38;1.50;;;;;;;;;;4985567;28;20022;-71
2021/10/03 08:08:30;;;;;;;5.82;1.40;;;;;;;;;;4995541;28;20029;-70
2021/10/03 08:10:56;;;;;;;5.53;1.90;;;;;;;;;;4993399;28;20068;-70
2021/10/03 08:13:22;;;;;;;3.22;1.85;;;;;;;;;;4982711;28;20022;-70
2021/10/03 08:15:48;;;;;;;7.50;2.00;;;;;;;;;;4990502;28;20037;-70
2021/10/03 08:18:14;;;;;;;9.05;4.28;;;;;;;;;;4992193;28;20018;-70
2021/10/03 08:20:41;;;;;;;5.38;1.50;;;;;;;;;;5008812;28;20034;-70
2021/10/03 08:23:07;;;;;;;5.30;1.73;;;;;;;;;;4990516;28;20081;-70
2021/10/03 08:25:33;;;;;;;7.25;2.97;;;;;;;;;;5004558;28;20021;-71
2021/10/03 08:28:00;;;;;;;6.40;1.60;;;;;;;;;;4985734;28;20041;-71
2021/10/03 08:30:26;;;;;;;6.93;1.75;;;;;;;;;;4987733;28;20058;-71
2021/10/03 08:32:52;;;;;;;9.75;2.35;;;;;;;;;;4986123;28;20484;-71
2021/10/03 08:35:18;;;;;;;7.10;1.88;;;;;;;;;;4981759;28;20559;-70
2021/10/03 08:37:44;;;;;;;6.78;1.85;;;;;;;;;;4981826;28;20031;-71
2021/10/03 08:40:12;;;;;;;4.03;1.40;;;;;;;;;;4991198;28;20038;-71
2021/10/03 08:42:38;;;;;;;4.13;1.48;;;;;;;;;;4995793;28;20033;-70
2021/10/03 08:45:05;;;;;;;5.15;1.48;;;;;;;;;;4991764;28;20030;-70
2021/10/03 08:47:31;;;;;;;4.38;2.33;;;;;;;;;;4996444;28;20037;-71
2021/10/03 08:49:58;;;;;;;7.45;1.73;;;;;;;;;;4984859;28;20428;-71
2021/10/03 08:52:24;;;;;;;5.95;2.10;;;;;;;;;;4988336;28;20030;-70
2021/10/03 08:54:51;;;;;;;6.38;1.60;;;;;;;;;;4997586;28;20565;-70
2021/10/03 08:57:17;;;;;;;10.85;2.70;;;;;;;;;;4979190;28;20109;-71
2021/10/03 09:00:02;;;;;;;6.05;1.80;;;;;;;;;;4995487;28;20030;-71
2021/10/03 09:02:28;;;;;;;5.72;1.73;;;;;;;;;;4990256;28;20030;-71
2021/10/03 09:05:00;;;;;;;9.38;2.08;;;;;;;;;;5002841;28;20393;-71
2021/10/03 09:07:26;;;;;;;5.50;1.77;;;;;;;;;;4997914;28;20022;-70
2021/10/03 09:09:52;;;;;;;5.55;1.45;;;;;;;;;;4996379;28;20114;-70
2021/10/03 09:12:38;;;;;;;8.27;1.67;;;;;;;;;;4991516;28;20022;-70
2021/10/03 09:15:05;;;;;;;8.70;1.92;;;;;;;;;;4992264;28;20026;-71
2021/10/03 09:17:32;;;;;;;6.43;1.73;;;;;;;;;;4991998;28;20035;-70
2021/10/03 09:20:15;;;;;;;5.85;1.42;;;;;;;;;;4991131;28;20027;-70
2021/10/03 09:22:56;;;;;;;6.35;1.63;;;;;;;;;;4995279;28;20031;-70
2021/10/03 09:25:31;;;;;;;8.82;1.85;;;;;;;;;;4988256;28;20389;-70
2021/10/03 09:27:57;;;;;;;5.90;2.47;;;;;;;;;;4985178;28;20026;-70
2021/10/03 09:30:23;;;;;;;9.48;2.05;;;;;;;;;;4981616;28;20070;-71
2021/10/03 09:32:57;;;;;;;5.20;1.55;;;;;;;;;;4987277;28;20085;-72
2021/10/03 09:35:27;;;;;;;7.43;1.83;;;;;;;;;;4981998;28;20105;-71
2021/10/03 09:37:53;;;;;;;7.03;1.92;;;;;;;;;;5007215;28;20039;-70
2021/10/03 09:40:20;;;;;;;5.53;1.65;;;;;;;;;;4980698;28;20026;-70
2021/10/03 09:43:04;;;;;;;5.75;2.00;;;;;;;;;;4993823;28;20022;-70
2021/10/03 09:45:32;;;;;;;4.05;1.60;;;;;;;;;;4985669;28;20096;-70
2021/10/03 09:48:00;;;;;;;4.20;1.58;;;;;;;;;;4991287;28;20085;-71
2021/10/03 09:50:26;;;;;;;3.92;1.80;;;;;;;;;;4987418;28;20061;-70
2021/10/03 09:52:53;;;;;;;7.30;2.00;;;;;;;;;;4990867;28;20080;-70
2021/10/03 09:55:19;;;;;;;6.80;1.67;;;;;;;;;;4990690;28;20458;-71
2021/10/03 09:57:45;;;;;;;5.25;1.88;;;;;;;;;;4985865;28;20117;-70
2021/10/03 10:00:15;;;;;;;5.13;1.70;;;;;;;;;;4982274;28;20105;-70
2021/10/03 10:02:42;;;;;;;9.38;2.33;;;;;;;;;;4989066;28;20027;-70
2021/10/03 10:05:08;;;;;;;4.00;1.70;;;;;;;;;;4987717;28;20072;-70
2021/10/03 10:07:34;;;;;;;6.57;1.83;;;;;;;;;;4997051;28;20065;-70
2021/10/03 10:10:00;;;;;;;5.60;1.50;;;;;;;;;;4988212;28;20031;-70
2021/10/03 10:12:27;;;;;;;4.95;1.73;;;;;;;;;;4991172;28;20023;-70
2021/10/03 10:15:01;;;;;;;6.18;1.75;;;;;;;;;;4989994;28;20432;-70
2021/10/03 10:17:38;;;;;;;6.15;1.88;;;;;;;;;;4990046;28;20092;-70
2021/10/03 10:20:20;;;;;;;5.47;2.00;;;;;;;;;;4978827;28;20556;-70
2021/10/03 10:23:00;;;;;;;7.80;2.00;;;;;;;;;;4984397;28;20049;-71
2021/10/03 10:25:45;;;;;;;5.40;1.80;;;;;;;;;;4988060;28;20497;-71
2021/10/03 10:28:12;;;;;;;5.15;1.65;;;;;;;;;;4985151;28;20034;-70
2021/10/03 10:30:58;;;;;;;9.05;2.58;;;;;;;;;;4987885;28;20068;-71
2021/10/03 10:33:25;;;;;;;8.07;1.90;;;;;;;;;;4989981;28;20087;-71
2021/10/03 10:36:11;;;;;;;7.97;1.67;;;;;;;;;;4998528;28;20064;-71
2021/10/03 10:38:37;;;;;;;8.32;1.63;;;;;;;;;;4979096;28;20401;-71
2021/10/03 10:41:23;;;;;;;5.22;1.30;;;;;;;;;;4988164;28;20458;-71
2021/10/03 10:43:49;;;;;;;9.07;1.80;;;;;;;;;;4985203;28;20033;-70
2021/10/03 10:46:35;;;;;;;8.68;2.53;;;;;;;;;;4988942;28;20019;-70
2021/10/03 10:49:19;;;;;;;4.00;1.58;;;;;;;;;;4987404;28;20030;-71
2021/10/03 10:51:45;;;;;;;7.20;1.83;;;;;;;;;;4988832;28;20177;-71
2021/10/03 10:54:14;;;;;;;4.07;1.40;;;;;;;;;;4988210;28;20633;-70
2021/10/03 10:56:40;;;;;;;6.30;1.75;;;;;;;;;;4987406;28;20104;-70
2021/10/03 10:59:08;;;;;;;5.13;1.42;;;;;;;;;;4985597;28;20109;-71
2021/10/03 11:01:34;;;;;;;19.65;2.80;;;;;;;;;;4986216;28;20404;-70
2021/10/03 11:04:10;;;;;;;11.30;1.95;;;;;;;;;;4988943;28;20446;-70
2021/10/03 11:06:36;;;;;;;7.90;1.63;;;;;;;;;;4990295;28;20026;-71
2021/10/03 11:09:03;;;;;;;11.43;1.80;;;;;;;;;;4985539;28;20548;-70
2021/10/03 11:11:34;;;;;;;253.88;54.03;;;;;;;;;;4985282;28;20034;-70
2021/10/03 11:14:01;;;;;;;15.73;3.08;;;;;;;;;;4986585;28;20477;-70
2021/10/03 11:16:28;;;;;;;8.32;2.15;;;;;;;;;;4989759;28;20045;-70
2021/10/03 11:18:56;;;;;;;5.38;1.80;;;;;;;;;;4988280;28;20049;-71
2021/10/03 11:21:24;;;;;;;7.85;1.75;;;;;;;;;;4989411;28;20018;-70
2021/10/03 11:23:51;;;;;;;6.18;1.58;;;;;;;;;;4979905;28;20030;-70
2021/10/03 11:26:19;;;;;;;7.60;1.70;;;;;;;;;;4986323;28;20117;-71
2021/10/03 11:28:58;;;;;;;7.95;2.03;;;;;;;;;;4985256;28;20034;-71
2021/10/03 11:31:36;;;;;;;8.43;1.88;;;;;;;;;;4994608;28;20095;-71
2021/10/03 11:34:03;;;;;;;5.00;1.65;;;;;;;;;;4999443;28;20125;-71
2021/10/03 11:36:29;;;;;;;6.05;1.80;;;;;;;;;;4986787;28;20030;-70
2021/10/03 11:39:00;;;;;;;6.97;1.70;;;;;;;;;;4990153;28;20038;-71
2021/10/03 11:41:26;;;;;;;4.82;1.83;;;;;;;;;;4986563;28;20158;-71
2021/10/03 11:43:53;;;;;;;6.32;2.75;;;;;;;;;;4989151;28;20037;-71
2021/10/03 11:46:19;;;;;;;4.93;1.35;;;;;;;;;;4989926;28;20053;-71
2021/10/03 11:48:50;;;;;;;7.82;1.40;;;;;;;;;;4982423;28;20022;-71
2021/10/03 11:51:16;;;;;;;6.10;1.40;;;;;;;;;;4986870;28;20034;-70
2021/10/03 11:53:47;;;;;;;3.10;1.23;;;;;;;;;;4987773;28;20280;-71
2021/10/03 11:56:15;;;;;;;7.45;1.63;;;;;;;;;;4982333;28;20029;-70
2021/10/03 11:58:43;;;;;;;7.03;2.67;;;;;;;;;;4993482;28;20070;-70
2021/10/03 12:01:09;;;;;;;3.30;1.20;;;;;;;;;;4980631;28;20273;-70
2021/10/03 12:03:49;;;;;;;4.97;1.42;;;;;;;;;;4977986;28;20042;-70
2021/10/03 12:06:30;;;;;;;5.57;1.40;;;;;;;;;;4979613;28;20034;-70
2021/10/03 12:08:56;;;;;;;3.13;1.27;;;;;;;;;;4976908;28;20177;-70
2021/10/03 12:11:23;;;;;;;8.80;1.52;;;;;;;;;;4979328;28;20125;-70
2021/10/03 12:13:59;;;;;;;5.57;1.20;;;;;;;;;;4981453;28;20085;-71
2021/10/03 12:16:25;;;;;;;6.93;1.52;;;;;;;;;;4977986;28;20149;-71
2021/10/03 12:19:00;;;;;;;6.80;1.35;;;;;;;;;;4981708;28;20460;-70
2021/10/03 12:21:26;;;;;;;6.10;1.30;;;;;;;;;;4976906;23;20447;-71
2021/10/03 12:23:54;;;;;;;2.22;1.02;;;;;;;;;;4960535;28;20042;-71
2021/10/03 12:26:20;;;;;;;4.90;1.30;;;;;;;;;;4957864;28;20562;-72
2021/10/03 12:28:56;;;;;;;3.90;1.10;;;;;;;;;;4957474;28;20041;-70
2021/10/03 12:31:35;;;;;;;7.57;1.65;;;;;;;;;;4959585;28;20550;-72
2021/10/03 12:34:02;;;;;;;5.82;1.70;;;;;;;;;;4958101;28;20027;-71
2021/10/03 12:36:28;;;;;;;5.00;1.45;;;;;;;;;;5008262;23;20051;-75
2021/10/03 12:38:54;;;;;;;2.75;1.30;;;;;;;;;;4948131;28;20034;-75
2021/10/03 12:41:20;;;;;;;4.63;1.40;;;;;;;;;;4960880;28;20039;-76
2021/10/03 12:43:50;;;;;;;5.43;1.60;;;;;;;;;;4953456;28;20035;-76
2021/10/03 12:46:16;;;;;;;4.70;1.60;;;;;;;;;;4956492;28;20035;-76
2021/10/03 12:48:43;;;;;;;7.85;1.60;;;;;;;;;;4949560;28;20620;-76
2021/10/03 12:51:09;;;;;;;4.53;1.20;;;;;;;;;;4953455;28;20046;-75
2021/10/03 12:53:35;;;;;;;5.97;1.58;;;;;;;;;;4955904;28;20054;-75
2021/10/03 12:56:01;;;;;;;12.25;1.75;;;;;;;;;;4952396;28;20031;-76
2021/10/03 12:58:27;;;;;;;7.32;1.60;;;;;;;;;;4953870;28;20629;-77
2021/10/03 13:00:53;;;;;;;9.07;1.52;;;;;;;;;;4953192;28;20126;-75
2021/10/03 13:03:19;;;;;;;6.45;2.33;;;;;;;;;;4947026;28;20019;-75
2021/10/03 13:05:45;;;;;;;6.07;1.65;;;;;;;;;;4958742;28;20030;-76
2021/10/03 13:08:11;;;;;;;3.40;1.63;;;;;;;;;;4949759;28;20031;-76
2021/10/03 13:10:37;;;;;;;4.63;1.58;;;;;;;;;;4955933;28;20085;-76
2021/10/03 13:13:04;;;;;;;9.80;2.65;;;;;;;;;;4953617;28;20402;-78
2021/10/03 13:15:30;;;;;;;7.00;2.10;;;;;;;;;;4957043;28;20490;-77
2021/10/03 13:17:56;;;;;;;15.02;2.83;;;;;;;;;;4960778;28;20034;-77
2021/10/03 13:20:22;;;;;;;6.95;2.65;;;;;;;;;;4952542;28;20058;-77
2021/10/03 13:22:48;;;;;;;12.13;4.13;;;;;;;;;;4954510;28;20031;-78
2021/10/03 13:25:14;;;;;;;8.75;3.72;;;;;;;;;;4955731;28;20098;-78
2021/10/03 13:27:40;;;;;;;12.32;4.07;;;;;;;;;;4957481;28;20294;-79
2021/10/03 13:30:08;;;;;;;8.73;3.80;;;;;;;;;;4962535;28;20070;-79
2021/10/03 13:32:34;;;;;;;13.02;4.20;;;;;;;;;;4954003;28;20533;-78
2021/10/03 13:35:00;;;;;;;9.57;3.03;;;;;;;;;;4952859;28;20031;-77
2021/10/03 13:37:26;;;;;;;10.68;4.22;;;;;;;;;;4953811;28;20049;-82
2021/10/03 13:39:52;;;;;;;9.65;4.47;;;;;;;;;;4950146;28;20031;-81
2021/10/03 13:42:18;;;;;;;12.95;4.47;;;;;;;;;;4954945;28;20113;-80
2021/10/03 13:44:44;;;;;;;11.52;5.13;;;;;;;;;;4974216;28;20082;-77
2021/10/03 13:47:10;;;;;;;13.32;5.32;;;;;;;;;;4951170;28;20034;-80
2021/10/03 13:49:36;;;;;;;13.18;4.70;;;;;;;;;;4952130;28;20031;-78
2021/10/03 13:52:03;;;;;;;15.55;5.53;;;;;;;;;;4951664;28;20042;-82
2021/10/03 13:54:29;;;;;;;10.73;5.07;;;;;;;;;;4952144;28;20031;-80
2021/10/03 13:56:55;;;;;;;13.45;4.22;;;;;;;;;;4950755;28;20031;-79
2021/10/03 13:59:21;;;;;;;12.20;4.38;;;;;;;;;;4952861;28;20035;-79
2021/10/03 14:01:47;;;;;;;10.07;3.50;;;;;;;;;;4951216;28;20409;-80
2021/10/03 14:04:13;;;;;;;8.05;3.25;;;;;;;;;;4952561;28;20040;-81
2021/10/03 14:06:39;;;;;;;8.35;3.15;;;;;;;;;;4945777;28;20045;-79
2021/10/03 14:09:06;;;;;;;7.93;3.13;;;;;;;;;;4951210;28;20015;-80
2021/10/03 14:11:32;;;;;;;7.70;3.25;;;;;;;;;;4958622;28;20058;-79
2021/10/03 14:13:58;;;;;;;9.93;3.92;;;;;;;;;;4960735;28;20031;-81
2021/10/03 14:16:24;;;;;;;9.38;3.30;;;;;;;;;;4953737;28;20031;-79
2021/10/03 14:18:50;;;;;;;9.70;4.15;;;;;;;;;;4955314;28;20046;-81
2021/10/03 14:21:16;;;;;;;8.65;3.08;;;;;;;;;;4960834;28;20082;-79
2021/10/03 14:23:42;;;;;;;7.38;2.42;;;;;;;;;;4957570;28;20041;-80
2021/10/03 14:26:08;;;;;;;8.95;2.95;;;;;;;;;;4960445;28;20390;-79
2021/10/03 14:28:34;;;;;;;11.52;2.70;;;;;;;;;;4949024;28;20020;-78
2021/10/03 14:31:00;;;;;;;10.00;2.60;;;;;;;;;;4955027;28;20533;-79
2021/10/03 14:33:27;;;;;;;8.13;2.80;;;;;;;;;;4956360;28;20089;-80
2021/10/03 14:35:54;;;;;;;9.20;2.47;;;;;;;;;;4950359;28;20023;-78